Time;durP1;ratioP1;P1;durP2;ratioP2;P2;SDS_P1;SDS_P2;PMS_P1;PMS_P2;Temp;Humidity;BMP_temperature;BMP_pressure;BME280_temperature;BME280_humidity;BME280_pressure;Samples;Min_cycle;Max_cycle;Signal;HPM_P1;HPM_P2
2023/09/26 00:00:23;;;;;;;7.38;3.50;;;17.30;87.20;;;;;;4975534;28;20042;-80
2023/09/26 00:02:53;;;;;;;7.00;3.05;;;17.30;87.30;;;;;;4975564;28;20045;-80
2023/09/26 00:05:20;;;;;;;8.30;3.55;;;17.30;87.40;;;;;;4984343;28;20022;-80
2023/09/26 00:07:47;;;;;;;6.00;3.22;;;17.30;87.60;;;;;;4994858;28;20018;-80
2023/09/26 00:10:13;;;;;;;8.90;3.75;;;17.30;87.70;;;;;;4994576;28;20161;-80
2023/09/26 00:12:39;;;;;;;7.15;3.78;;;17.20;87.80;;;;;;4976910;28;20109;-80
2023/09/26 00:15:07;;;;;;;8.30;4.05;;;17.20;87.90;;;;;;4994260;28;20026;-80
2023/09/26 00:17:33;;;;;;;6.90;3.55;;;17.20;87.80;;;;;;4994381;28;20025;-80
2023/09/26 00:19:58;;;;;;;7.18;4.05;;;17.20;87.80;;;;;;4994337;28;20033;-80
2023/09/26 00:22:27;;;;;;;8.75;3.28;;;17.10;87.90;;;;;;4994315;28;20022;-79
2023/09/26 00:24:53;;;;;;;5.28;2.65;;;17.10;88.10;;;;;;4994428;28;20018;-80
2023/09/26 00:27:18;;;;;;;8.45;3.63;;;17.10;88.40;;;;;;4987394;28;20499;-80
2023/09/26 00:29:44;;;;;;;6.95;3.83;;;17.00;88.40;;;;;;4980578;28;20039;-80
2023/09/26 00:32:10;;;;;;;9.13;4.45;;;17.00;88.50;;;;;;4975892;28;20026;-80
2023/09/26 00:34:36;;;;;;;10.90;4.47;;;17.00;88.50;;;;;;4974812;28;20027;-80
2023/09/26 00:37:01;;;;;;;7.50;3.83;;;16.90;88.50;;;;;;4974778;28;20070;-80
2023/09/26 00:39:27;;;;;;;7.88;3.90;;;16.90;88.50;;;;;;4957517;28;20085;-80
2023/09/26 00:41:53;;;;;;;7.28;3.95;;;16.90;88.50;;;;;;4974652;28;20113;-80
2023/09/26 00:44:18;;;;;;;7.80;3.80;;;16.80;88.50;;;;;;4974736;28;20031;-80
2023/09/26 00:46:45;;;;;;;6.80;4.07;;;16.80;88.70;;;;;;4974969;28;20015;-80
2023/09/26 00:49:11;;;;;;;8.60;4.15;;;16.80;88.90;;;;;;4974288;28;20039;-80
2023/09/26 00:51:38;;;;;;;10.30;4.97;;;16.70;89.10;;;;;;4974265;28;20073;-80
2023/09/26 00:54:06;;;;;;;9.88;4.90;;;16.70;89.30;;;;;;4974420;28;20031;-80
2023/09/26 00:56:31;;;;;;;8.35;4.45;;;16.70;89.50;;;;;;4974389;28;20033;-80
2023/09/26 00:59:00;;;;;;;8.95;4.32;;;16.70;89.50;;;;;;4992971;28;20050;-80
2023/09/26 01:01:29;;;;;;;7.82;4.28;;;16.70;89.50;;;;;;4994139;28;20025;-80
2023/09/26 01:03:56;;;;;;;9.52;4.88;;;16.70;89.60;;;;;;4993453;28;20488;-80
2023/09/26 01:06:21;;;;;;;10.02;4.43;;;16.60;89.50;;;;;;4993744;28;20359;-80
2023/09/26 01:08:47;;;;;;;8.82;4.82;;;16.60;89.50;;;;;;4993769;28;20077;-80
2023/09/26 01:11:13;;;;;;;8.80;5.22;;;16.60;89.50;;;;;;4992480;28;20382;-80
2023/09/26 01:13:39;;;;;;;12.18;4.50;;;16.50;89.60;;;;;;4993556;28;20526;-80
2023/09/26 01:16:18;;;;;;;9.38;4.68;;;16.50;89.80;;;;;;4993932;28;20065;-80
2023/09/26 01:18:45;;;;;;;8.27;5.07;;;16.40;90.00;;;;;;4976287;28;20486;-80
2023/09/26 01:21:11;;;;;;;8.85;5.07;;;16.40;90.00;;;;;;4994273;28;20041;-81
2023/09/26 01:23:40;;;;;;;8.63;4.50;;;16.40;90.00;;;;;;4993304;28;20018;-80
2023/09/26 01:26:06;;;;;;;8.38;4.85;;;16.40;90.00;;;;;;4993000;28;20018;-80
2023/09/26 01:28:32;;;;;;;11.07;4.55;;;16.40;90.00;;;;;;4993541;28;20022;-80
2023/09/26 01:30:57;;;;;;;9.73;5.32;;;16.40;90.00;;;;;;4975865;28;20030;-80
2023/09/26 01:33:23;;;;;;;8.93;5.00;;;16.30;90.00;;;;;;4993358;28;20030;-80
2023/09/26 01:35:51;;;;;;;8.68;5.22;;;16.30;90.00;;;;;;4993556;28;20037;-80
2023/09/26 01:38:19;;;;;;;7.70;4.68;;;16.30;90.10;;;;;;4993302;28;20023;-80
2023/09/26 01:40:45;;;;;;;7.85;4.60;;;16.30;90.10;;;;;;4976141;28;20023;-80
2023/09/26 01:43:11;;;;;;;8.40;4.75;;;16.30;90.10;;;;;;4993189;28;20514;-80
2023/09/26 01:45:37;;;;;;;8.73;4.80;;;16.30;90.10;;;;;;4992818;28;20042;-81
2023/09/26 01:48:05;;;;;;;9.55;5.32;;;16.20;90.10;;;;;;4991646;28;20363;-79
2023/09/26 01:50:31;;;;;;;10.45;4.95;;;16.20;90.10;;;;;;4993182;28;20478;-79
2023/09/26 01:52:57;;;;;;;8.50;4.70;;;16.20;90.10;;;;;;4991953;28;20105;-80
2023/09/26 01:55:23;;;;;;;7.20;4.68;;;16.20;90.20;;;;;;4992992;28;20443;-80
2023/09/26 01:57:49;;;;;;;10.05;4.70;;;16.20;90.30;;;;;;4983418;28;20403;-80
2023/09/26 02:00:16;;;;;;;9.85;5.18;;;16.20;90.30;;;;;;4973528;28;20561;-80
2023/09/26 02:02:45;;;;;;;10.73;5.03;;;16.10;90.30;;;;;;4956271;28;20089;-80
2023/09/26 02:05:15;;;;;;;7.45;4.40;;;16.10;90.40;;;;;;4973942;28;20047;-80
2023/09/26 02:07:41;;;;;;;9.10;4.35;;;16.10;90.40;;;;;;4973713;28;20517;-79
2023/09/26 02:10:08;;;;;;;8.05;5.28;;;16.10;90.40;;;;;;4973485;28;20031;-79
2023/09/26 02:12:39;;;;;;;12.25;5.35;;;16.10;90.40;;;;;;4956436;28;20030;-80
2023/09/26 02:15:08;;;;;;;8.18;4.65;;;16.20;90.50;;;;;;4956247;28;20114;-80
2023/09/26 02:17:35;;;;;;;10.40;5.47;;;16.10;90.50;;;;;;4973882;28;20026;-80
2023/09/26 02:20:02;;;;;;;6.93;4.40;;;16.10;90.40;;;;;;4972141;28;20026;-80
2023/09/26 02:22:27;;;;;;;9.35;4.43;;;16.10;90.40;;;;;;4956232;28;20034;-80
2023/09/26 02:24:53;;;;;;;8.73;4.63;;;16.10;90.40;;;;;;4973749;28;20031;-80
2023/09/26 02:27:19;;;;;;;6.72;4.82;;;16.10;90.40;;;;;;4973303;28;20035;-80
2023/09/26 02:29:45;;;;;;;10.60;4.20;;;16.10;90.40;;;;;;4955831;28;20118;-80
2023/09/26 02:32:10;;;;;;;7.70;4.53;;;16.00;90.40;;;;;;4973401;28;20151;-80
2023/09/26 02:34:36;;;;;;;9.75;4.97;;;16.00;90.40;;;;;;4973253;28;20538;-81
2023/09/26 02:37:02;;;;;;;9.23;4.65;;;16.00;90.50;;;;;;4973485;28;20035;-80
2023/09/26 02:39:28;;;;;;;10.88;5.28;;;16.00;90.60;;;;;;4976507;28;20042;-80
2023/09/26 02:41:54;;;;;;;8.95;5.15;;;16.00;90.60;;;;;;4976689;28;20031;-80
2023/09/26 02:44:19;;;;;;;9.95;5.57;;;15.90;90.70;;;;;;4976902;28;21113;-80
2023/09/26 02:46:45;;;;;;;9.70;5.50;;;15.90;90.70;;;;;;4975820;28;20026;-80
2023/09/26 02:49:10;;;;;;;10.73;4.95;;;15.90;90.80;;;;;;4975455;28;20027;-80
2023/09/26 02:51:36;;;;;;;9.35;5.97;;;15.90;90.90;;;;;;4976660;28;20086;-80
2023/09/26 02:54:02;;;;;;;8.05;5.13;;;15.90;91.00;;;;;;4976513;28;20027;-80
2023/09/26 02:56:27;;;;;;;9.20;5.07;;;15.80;91.10;;;;;;4959497;28;20045;-80
2023/09/26 02:58:53;;;;;;;10.10;5.05;;;15.80;91.20;;;;;;4994401;28;20042;-80
2023/09/26 03:01:20;;;;;;;6.95;4.85;;;15.80;91.30;;;;;;4978485;28;20074;-80
2023/09/26 03:03:46;;;;;;;9.45;5.22;;;15.80;91.40;;;;;;4995765;28;20054;-80
2023/09/26 03:06:11;;;;;;;7.95;5.30;;;15.80;91.50;;;;;;4995813;28;20054;-80
2023/09/26 03:08:37;;;;;;;9.02;4.90;;;15.70;91.50;;;;;;4995902;28;20068;-80
2023/09/26 03:11:03;;;;;;;10.98;5.43;;;15.70;91.60;;;;;;4995853;28;20066;-80
2023/09/26 03:13:35;;;;;;;8.48;5.00;;;15.70;91.60;;;;;;4995999;28;20050;-80
2023/09/26 03:16:01;;;;;;;8.40;4.97;;;15.70;91.60;;;;;;4995942;28;20065;-79
2023/09/26 03:18:27;;;;;;;7.43;4.30;;;15.70;91.70;;;;;;4995595;28;20015;-80
2023/09/26 03:20:53;;;;;;;10.63;4.63;;;15.70;91.70;;;;;;4995700;28;20015;-79
2023/09/26 03:23:24;;;;;;;8.82;5.30;;;15.70;91.70;;;;;;4995589;28;20023;-80
2023/09/26 03:25:49;;;;;;;11.10;5.82;;;15.70;91.70;;;;;;4994531;28;20030;-80
2023/09/26 03:28:15;;;;;;;9.43;4.82;;;15.70;91.70;;;;;;4995315;28;20500;-79
2023/09/26 03:30:42;;;;;;;7.28;4.55;;;15.70;91.80;;;;;;5003015;28;20040;-79
2023/09/26 03:33:08;;;;;;;7.95;4.80;;;15.60;91.80;;;;;;4997797;28;20018;-79
2023/09/26 03:35:33;;;;;;;7.70;5.13;;;15.60;91.80;;;;;;4995045;28;20086;-79
2023/09/26 03:37:59;;;;;;;8.43;4.75;;;15.60;91.80;;;;;;5000090;28;20084;-79
2023/09/26 03:40:25;;;;;;;9.57;5.60;;;15.50;91.90;;;;;;4999570;28;20030;-79
2023/09/26 03:42:50;;;;;;;9.40;5.03;;;15.60;91.90;;;;;;4977633;28;20030;-80
2023/09/26 03:45:16;;;;;;;9.13;5.32;;;15.50;92.00;;;;;;4995186;28;20024;-79
2023/09/26 03:47:42;;;;;;;10.68;5.35;;;15.50;92.00;;;;;;4995628;28;20042;-79
2023/09/26 03:50:10;;;;;;;9.38;5.05;;;15.50;92.00;;;;;;4994616;28;20534;-80
2023/09/26 03:52:36;;;;;;;9.82;5.65;;;15.50;92.10;;;;;;4995111;28;20037;-79
2023/09/26 03:55:02;;;;;;;9.77;5.00;;;15.50;92.10;;;;;;4994814;28;20022;-79
2023/09/26 03:57:31;;;;;;;8.43;5.30;;;15.50;92.20;;;;;;4993314;28;20065;-79
2023/09/26 03:59:57;;;;;;;9.05;5.07;;;15.40;92.20;;;;;;4994960;28;20386;-79
2023/09/26 04:02:23;;;;;;;8.95;4.80;;;15.40;92.20;;;;;;4994959;28;20026;-79
2023/09/26 04:04:48;;;;;;;8.05;4.55;;;15.40;92.30;;;;;;4994632;28;20113;-80
2023/09/26 04:07:14;;;;;;;9.98;5.10;;;15.40;92.30;;;;;;4994662;28;20102;-80
2023/09/26 04:09:40;;;;;;;9.73;5.20;;;15.40;92.30;;;;;;4994610;28;20491;-80
2023/09/26 04:12:06;;;;;;;7.15;4.43;;;15.40;92.40;;;;;;4993282;28;20030;-80
2023/09/26 04:14:32;;;;;;;8.05;4.40;;;15.30;92.40;;;;;;4994622;28;20385;-80
2023/09/26 04:16:57;;;;;;;9.80;5.25;;;15.30;92.50;;;;;;5004576;28;20022;-79
2023/09/26 04:19:23;;;;;;;10.90;5.38;;;15.30;92.50;;;;;;4994901;28;20029;-80
2023/09/26 04:21:52;;;;;;;9.60;5.10;;;15.30;92.60;;;;;;4977027;28;20029;-80
2023/09/26 04:24:18;;;;;;;8.00;4.40;;;15.30;92.60;;;;;;4977178;28;20034;-79
2023/09/26 04:26:44;;;;;;;8.20;5.25;;;15.30;92.60;;;;;;4993042;28;20109;-79
2023/09/26 04:29:10;;;;;;;8.82;4.43;;;15.20;92.60;;;;;;4994139;28;20452;-79
2023/09/26 04:31:36;;;;;;;8.75;5.70;;;15.20;92.70;;;;;;4976862;28;20025;-78
2023/09/26 04:34:01;;;;;;;8.63;4.72;;;15.20;92.70;;;;;;4994471;28;20378;-79
2023/09/26 04:36:29;;;;;;;9.68;4.60;;;15.20;92.80;;;;;;4993131;28;20026;-79
2023/09/26 04:38:55;;;;;;;8.25;4.63;;;15.20;92.90;;;;;;4993988;28;20089;-78
2023/09/26 04:41:20;;;;;;;10.60;5.65;;;15.10;92.90;;;;;;4992839;28;20026;-78
2023/09/26 04:43:46;;;;;;;8.00;5.18;;;15.10;92.90;;;;;;4994008;28;20035;-79
2023/09/26 04:46:12;;;;;;;9.15;5.60;;;15.10;92.90;;;;;;4994217;28;20065;-79
2023/09/26 04:48:43;;;;;;;9.70;4.88;;;15.10;93.00;;;;;;4996152;28;20022;-78
2023/09/26 04:51:13;;;;;;;10.25;4.82;;;15.10;93.00;;;;;;4996480;28;20057;-78
2023/09/26 04:53:39;;;;;;;8.93;5.25;;;15.00;93.00;;;;;;5013448;28;20064;-78
2023/09/26 04:56:06;;;;;;;10.23;4.95;;;15.00;93.10;;;;;;5011551;28;20057;-78
2023/09/26 04:58:32;;;;;;;8.32;5.13;;;15.00;93.10;;;;;;5013993;28;20068;-77
2023/09/26 05:01:01;;;;;;;9.13;5.47;;;15.00;93.20;;;;;;5029722;28;20025;-78
2023/09/26 05:03:27;;;;;;;8.57;5.47;;;15.00;93.20;;;;;;4992377;28;20030;-78
2023/09/26 05:05:53;;;;;;;8.05;5.00;;;15.00;93.20;;;;;;5026547;28;20490;-78
2023/09/26 05:08:18;;;;;;;9.38;5.15;;;14.90;93.20;;;;;;5021658;28;20025;-78
2023/09/26 05:10:44;;;;;;;9.18;4.88;;;15.00;93.20;;;;;;5012368;28;20053;-78
2023/09/26 05:13:10;;;;;;;9.75;5.93;;;14.90;93.30;;;;;;5000918;28;20095;-78
2023/09/26 05:15:36;;;;;;;9.85;5.18;;;15.00;93.40;;;;;;5013560;28;20029;-78
2023/09/26 05:18:02;;;;;;;8.27;5.70;;;14.90;93.40;;;;;;5007674;28;20022;-78
2023/09/26 05:20:28;;;;;;;8.55;5.47;;;14.90;93.40;;;;;;4993455;28;20033;-78
2023/09/26 05:22:54;;;;;;;10.02;5.60;;;14.90;93.50;;;;;;4993347;28;20042;-79
2023/09/26 05:25:20;;;;;;;8.15;5.20;;;14.90;93.50;;;;;;4976019;28;20019;-79
2023/09/26 05:27:45;;;;;;;8.00;5.13;;;14.80;93.50;;;;;;5004216;28;20073;-79
2023/09/26 05:30:14;;;;;;;7.68;4.80;;;14.80;93.60;;;;;;4992084;28;20498;-78
2023/09/26 05:32:41;;;;;;;8.68;5.40;;;14.80;93.70;;;;;;4993690;28;20029;-78
2023/09/26 05:35:08;;;;;;;8.93;5.38;;;14.80;93.70;;;;;;5010000;28;20030;-82
2023/09/26 05:37:35;;;;;;;9.90;5.53;;;14.80;93.80;;;;;;5009575;28;20084;-77
2023/09/26 05:40:09;;;;;;;10.15;6.15;;;14.80;93.80;;;;;;5003268;28;20030;-78
2023/09/26 05:42:36;;;;;;;9.77;5.50;;;14.80;93.90;;;;;;5004150;28;20041;-77
2023/09/26 05:45:06;;;;;;;10.75;6.32;;;14.80;93.90;;;;;;4998538;28;20035;-78
2023/09/26 05:47:32;;;;;;;10.52;5.55;;;14.80;94.00;;;;;;4993088;28;20050;-77
2023/09/26 05:49:57;;;;;;;11.80;6.28;;;14.80;94.10;;;;;;4993084;28;20092;-77
2023/09/26 05:52:24;;;;;;;9.30;5.20;;;14.80;94.10;;;;;;4992684;28;20470;-78
2023/09/26 18:49:31;;;;;;;6.55;3.17;;;20.10;79.30;;;;;;1162252;23;20135;-85
2023/09/26 18:51:56;;;;;;;6.75;2.97;;;20.00;80.20;;;;;;4897929;23;20104;-85
2023/09/26 18:54:22;;;;;;;8.77;3.10;;;20.00;79.90;;;;;;4991358;28;20069;-85
2023/09/26 18:56:48;;;;;;;7.60;3.42;;;19.90;80.20;;;;;;4992991;28;20650;-83
2023/09/26 18:59:13;;;;;;;7.13;3.55;;;19.80;80.40;;;;;;4975917;28;20041;-83
2023/09/26 19:01:39;;;;;;;6.82;3.00;;;19.80;80.80;;;;;;4993662;28;20105;-84
2023/09/26 19:04:05;;;;;;;6.32;2.88;;;19.70;81.10;;;;;;4984085;28;20569;-83
2023/09/26 19:06:31;;;;;;;6.88;3.58;;;19.60;81.40;;;;;;4977314;28;20045;-86
2023/09/26 19:08:57;;;;;;;7.93;3.55;;;19.60;81.80;;;;;;4977671;28;20030;-89
2023/09/26 19:11:23;;;;;;;6.53;3.20;;;19.50;82.00;;;;;;4995687;28;20103;-89
2023/09/26 19:13:48;;;;;;;7.53;3.92;;;19.50;82.40;;;;;;4996448;28;20125;-88
2023/09/26 19:16:14;;;;;;;8.00;3.50;;;19.40;82.50;;;;;;4978546;28;20110;-89
2023/09/26 19:18:39;;;;;;;8.40;3.30;;;19.40;82.70;;;;;;4968725;28;20042;-88
2023/09/26 19:21:07;;;;;;;8.18;3.28;;;19.30;82.90;;;;;;4995109;28;20033;-89
2023/09/26 19:23:33;;;;;;;7.50;3.25;;;19.30;83.10;;;;;;4978301;28;20039;-88
2023/09/26 19:26:02;;;;;;;7.20;3.33;;;19.30;83.50;;;;;;4996211;28;20048;-88
2023/09/26 19:28:28;;;;;;;5.82;2.63;;;19.30;83.70;;;;;;4995741;28;20143;-88
2023/09/26 19:30:54;;;;;;;8.60;3.17;;;19.30;84.00;;;;;;4978704;28;20125;-89
2023/09/26 19:33:19;;;;;;;8.05;3.50;;;19.20;84.20;;;;;;4995788;28;20066;-88
2023/09/26 19:35:45;;;;;;;10.30;3.20;;;19.20;84.50;;;;;;4995615;28;20045;-88
2023/09/26 19:38:11;;;;;;;8.80;3.33;;;19.20;84.80;;;;;;4995348;28;20057;-88
2023/09/26 19:40:37;;;;;;;6.32;2.88;;;19.20;85.20;;;;;;4978170;28;20669;-88
2023/09/26 19:43:03;;;;;;;7.35;3.03;;;19.10;85.40;;;;;;4973525;28;20391;-87
2023/09/26 19:45:28;;;;;;;5.88;3.28;;;19.10;85.60;;;;;;4969879;28;20561;-85
2023/09/26 19:47:54;;;;;;;6.35;3.08;;;19.10;85.90;;;;;;4993171;28;20106;-85
2023/09/26 19:50:20;;;;;;;6.10;2.70;;;19.00;86.20;;;;;;4994421;28;20034;-85
2023/09/26 19:52:45;;;;;;;6.55;3.10;;;19.00;86.50;;;;;;4994289;28;20078;-84
2023/09/26 19:55:12;;;;;;;7.18;3.05;;;19.00;86.80;;;;;;4976731;28;20098;-85
2023/09/26 19:57:38;;;;;;;5.97;3.33;;;19.00;86.90;;;;;;4994010;28;20034;-85
2023/09/26 20:00:11;;;;;;;6.00;3.10;;;18.90;87.00;;;;;;4976969;28;20027;-85
2023/09/26 20:02:37;;;;;;;5.50;3.08;;;18.90;87.10;;;;;;4993546;28;20061;-85
2023/09/26 20:05:06;;;;;;;6.03;3.13;;;18.80;87.20;;;;;;4994386;28;20042;-85
2023/09/26 20:07:31;;;;;;;5.80;3.00;;;18.90;87.30;;;;;;4995949;28;20042;-85
2023/09/26 20:09:57;;;;;;;6.25;3.33;;;18.80;87.30;;;;;;4995809;28;20042;-85
2023/09/26 20:12:22;;;;;;;6.82;3.08;;;18.80;87.30;;;;;;4976036;28;20104;-79
2023/09/26 20:14:48;;;;;;;6.72;3.47;;;18.80;87.30;;;;;;4977315;28;20070;-79
2023/09/26 20:17:14;;;;;;;5.65;3.55;;;18.80;87.30;;;;;;4979406;28;20094;-79
2023/09/26 20:19:39;;;;;;;5.95;3.50;;;18.70;87.30;;;;;;4980639;28;20066;-79
2023/09/26 20:22:06;;;;;;;7.38;3.70;;;18.60;87.30;;;;;;4978112;28;20035;-81
2023/09/26 20:24:32;;;;;;;8.23;3.45;;;18.60;87.50;;;;;;4964526;28;20098;-82
2023/09/26 20:26:57;;;;;;;8.20;4.13;;;18.60;87.70;;;;;;4984175;28;20026;-82
2023/09/26 20:29:23;;;;;;;5.97;3.20;;;18.60;87.80;;;;;;4992374;28;20102;-82
2023/09/26 20:31:49;;;;;;;8.52;3.80;;;18.50;88.00;;;;;;4972995;28;20078;-82
2023/09/26 20:34:14;;;;;;;8.70;4.28;;;18.50;88.10;;;;;;4989922;28;20039;-82
2023/09/26 20:36:40;;;;;;;8.35;3.85;;;18.50;88.20;;;;;;4969880;28;20051;-81
2023/09/26 20:39:06;;;;;;;7.70;3.80;;;18.40;88.40;;;;;;4971497;28;20031;-82
2023/09/26 20:41:31;;;;;;;8.05;4.18;;;18.40;88.40;;;;;;4971171;28;20047;-82
2023/09/26 20:43:57;;;;;;;8.80;3.78;;;18.40;88.50;;;;;;4969901;28;20043;-82
2023/09/26 20:46:23;;;;;;;6.43;3.95;;;18.40;88.60;;;;;;4953256;28;20122;-83
2023/09/26 20:48:49;;;;;;;7.18;4.05;;;18.30;88.50;;;;;;4953651;28;20043;-84
2023/09/26 20:51:15;;;;;;;7.35;4.18;;;18.30;88.60;;;;;;4971017;28;20413;-83
2023/09/26 20:53:40;;;;;;;10.00;4.20;;;18.20;88.60;;;;;;4981612;28;20053;-83
2023/09/26 20:56:06;;;;;;;6.32;3.78;;;18.20;88.80;;;;;;4953853;28;20116;-83
2023/09/26 20:58:34;;;;;;;6.57;3.72;;;18.20;88.80;;;;;;4953559;28;20102;-83
2023/09/26 21:01:08;;;;;;;5.72;3.47;;;18.10;89.00;;;;;;4970590;28;20042;-81
2023/09/26 21:03:34;;;;;;;7.03;4.03;;;18.00;89.10;;;;;;4971493;28;20390;-81
2023/09/26 21:06:00;;;;;;;8.63;3.75;;;18.00;89.40;;;;;;4969314;28;20046;-81
2023/09/26 21:08:25;;;;;;;5.47;3.65;;;17.90;89.60;;;;;;4953560;28;20417;-81
2023/09/26 21:11:01;;;;;;;7.57;3.88;;;17.90;90.00;;;;;;4967047;28;20038;-81
2023/09/26 21:13:28;;;;;;;8.68;4.10;;;17.80;90.10;;;;;;4953894;28;20091;-81
2023/09/26 21:16:13;;;;;;;9.50;3.88;;;17.80;90.20;;;;;;4952613;28;20095;-80
2023/09/26 21:18:40;;;;;;;9.30;4.10;;;17.80;90.30;;;;;;4970220;28;20034;-81
2023/09/26 21:21:07;;;;;;;10.40;4.47;;;17.70;90.40;;;;;;4981626;28;20364;-81
2023/09/26 21:23:33;;;;;;;11.75;5.35;;;17.70;90.50;;;;;;4953004;28;20361;-80
2023/09/26 21:25:59;;;;;;;9.57;5.10;;;17.70;90.60;;;;;;4953222;28;20035;-80
2023/09/26 21:28:24;;;;;;;8.63;4.85;;;17.60;90.70;;;;;;4970492;28;20030;-80
2023/09/26 21:30:50;;;;;;;9.45;5.47;;;17.60;90.80;;;;;;4952105;28;20490;-80
2023/09/26 21:33:16;;;;;;;10.90;5.65;;;17.60;90.80;;;;;;4981380;28;20048;-81
2023/09/26 21:35:41;;;;;;;11.05;6.13;;;17.60;90.90;;;;;;4969309;28;20222;-80
2023/09/26 21:38:08;;;;;;;10.85;6.57;;;17.50;91.00;;;;;;4970849;28;20041;-81
2023/09/26 21:40:34;;;;;;;8.40;6.05;;;17.60;91.10;;;;;;4953450;28;20198;-81
2023/09/26 21:43:01;;;;;;;10.60;5.93;;;17.50;91.20;;;;;;4971953;28;20043;-81
2023/09/26 21:45:26;;;;;;;10.25;6.13;;;17.50;91.30;;;;;;4972766;28;20668;-81
2023/09/26 21:47:52;;;;;;;8.60;5.85;;;17.50;91.40;;;;;;4978283;28;20042;-81
2023/09/26 21:50:18;;;;;;;12.65;7.07;;;17.50;91.50;;;;;;4978469;28;20042;-81
2023/09/26 21:52:43;;;;;;;9.27;6.20;;;17.50;91.60;;;;;;4978056;28;20058;-81
2023/09/26 21:55:10;;;;;;;12.40;6.95;;;17.50;91.60;;;;;;4976565;28;20041;-81
2023/09/26 21:57:35;;;;;;;10.75;6.88;;;17.40;91.60;;;;;;4984788;28;20035;-81
2023/09/26 22:00:01;;;;;;;10.77;6.90;;;17.40;91.70;;;;;;4964155;28;20037;-81
2023/09/26 22:02:27;;;;;;;12.43;8.20;;;17.40;91.70;;;;;;4960467;28;20382;-81
2023/09/26 22:04:52;;;;;;;11.43;7.38;;;17.40;91.70;;;;;;4977765;28;20037;-81
2023/09/26 22:07:18;;;;;;;10.73;7.40;;;17.40;91.80;;;;;;4978147;28;20521;-81
2023/09/26 22:09:44;;;;;;;12.27;7.38;;;17.40;91.80;;;;;;4977788;28;20518;-81
2023/09/26 22:12:10;;;;;;;12.02;7.32;;;17.30;91.90;;;;;;4977813;28;20062;-81
2023/09/26 22:14:35;;;;;;;9.98;6.60;;;17.30;91.90;;;;;;4977084;28;20070;-82
2023/09/26 22:17:01;;;;;;;10.10;6.68;;;17.20;92.00;;;;;;4977746;28;20118;-81
2023/09/26 22:19:27;;;;;;;10.57;7.07;;;17.20;92.10;;;;;;4961101;28;20122;-83
2023/09/26 22:21:54;;;;;;;11.57;6.78;;;17.20;92.20;;;;;;4977870;28;20133;-83
2023/09/26 22:24:19;;;;;;;11.98;7.90;;;17.20;92.20;;;;;;4977932;28;20046;-83
2023/09/26 22:26:45;;;;;;;12.77;8.10;;;17.20;92.30;;;;;;4960354;28;20054;-82
2023/09/26 22:29:10;;;;;;;14.60;8.13;;;17.10;92.30;;;;;;4959831;28;20031;-83
2023/09/26 22:31:36;;;;;;;13.10;8.52;;;17.10;92.40;;;;;;4977765;28;20125;-82
2023/09/26 22:34:02;;;;;;;12.90;8.02;;;17.10;92.40;;;;;;4976177;28;20372;-83
2023/09/26 22:36:28;;;;;;;15.50;9.50;;;17.10;92.50;;;;;;4959988;28;20042;-82
2023/09/26 22:38:53;;;;;;;14.13;9.43;;;17.00;92.60;;;;;;4960307;28;20037;-83
2023/09/26 22:41:20;;;;;;;10.85;7.75;;;17.00;92.70;;;;;;4959959;28;20039;-83
2023/09/26 22:43:45;;;;;;;13.43;7.95;;;17.00;92.80;;;;;;4959629;28;20035;-83
2023/09/26 22:46:11;;;;;;;14.02;7.38;;;17.00;92.80;;;;;;4959934;28;20055;-83
2023/09/26 22:48:37;;;;;;;12.77;8.00;;;17.00;93.00;;;;;;4959669;28;20031;-83
2023/09/26 22:51:02;;;;;;;15.25;8.70;;;16.90;93.00;;;;;;4976830;28;20091;-83
2023/09/26 22:53:29;;;;;;;12.60;8.02;;;17.00;93.10;;;;;;4959586;28;20038;-83
2023/09/26 22:55:55;;;;;;;13.45;8.35;;;16.90;93.20;;;;;;4959411;28;20030;-83
2023/09/26 22:58:20;;;;;;;18.38;8.63;;;16.90;93.30;;;;;;4975534;28;20126;-83
2023/09/26 23:00:46;;;;;;;13.25;7.93;;;16.90;93.30;;;;;;4975722;28;20086;-83
2023/09/26 23:03:12;;;;;;;13.82;8.80;;;16.90;93.40;;;;;;4959534;28;20045;-83
2023/09/26 23:05:38;;;;;;;16.25;8.25;;;16.90;93.40;;;;;;4959763;28;20051;-82
2023/09/26 23:08:05;;;;;;;12.45;8.30;;;16.80;93.50;;;;;;4976986;28;20077;-83
2023/09/26 23:10:32;;;;;;;12.55;8.35;;;16.80;93.50;;;;;;4959098;28;20086;-83
2023/09/26 23:12:57;;;;;;;12.32;8.55;;;16.80;93.60;;;;;;4976529;28;20058;-83
2023/09/26 23:15:23;;;;;;;15.82;8.20;;;16.80;93.70;;;;;;4961621;28;20081;-83
2023/09/26 23:17:49;;;;;;;12.00;8.25;;;16.70;93.80;;;;;;4967936;28;20031;-83
2023/09/26 23:20:14;;;;;;;14.75;8.85;;;16.70;93.90;;;;;;4958937;28;20058;-83
2023/09/26 23:22:41;;;;;;;13.95;8.70;;;16.70;93.90;;;;;;4959049;28;20030;-83
2023/09/26 23:25:09;;;;;;;15.45;10.38;;;16.70;94.00;;;;;;4961171;28;20497;-83
2023/09/26 23:27:38;;;;;;;13.90;8.50;;;16.70;94.00;;;;;;4967333;28;20113;-83
2023/09/26 23:30:11;;;;;;;13.02;8.60;;;16.70;94.00;;;;;;4959062;28;20034;-83
2023/09/26 23:32:43;;;;;;;15.13;8.93;;;16.70;94.10;;;;;;4975152;28;20038;-82
2023/09/26 23:35:09;;;;;;;13.23;8.40;;;16.70;94.10;;;;;;4977509;28;20117;-80
2023/09/26 23:37:35;;;;;;;11.90;7.78;;;16.70;94.10;;;;;;4985468;28;20059;-81
2023/09/26 23:40:03;;;;;;;11.70;7.13;;;16.70;94.20;;;;;;4958437;28;20019;-81
2023/09/26 23:42:29;;;;;;;11.82;7.80;;;16.70;94.20;;;;;;4976177;28;20027;-82
2023/09/26 23:44:55;;;;;;;11.30;7.45;;;16.70;94.30;;;;;;4976046;28;20034;-81
2023/09/26 23:47:20;;;;;;;13.07;7.43;;;16.70;94.40;;;;;;4976126;28;20039;-82
2023/09/26 23:49:46;;;;;;;12.57;7.75;;;16.80;94.50;;;;;;4976675;28;20509;-81
2023/09/26 23:52:12;;;;;;;11.35;7.20;;;16.80;94.60;;;;;;4968330;28;20560;-78
2023/09/26 23:54:37;;;;;;;14.15;8.48;;;16.80;94.60;;;;;;4975224;28;20114;-78
2023/09/26 23:57:04;;;;;;;12.23;7.10;;;16.80;94.60;;;;;;4958766;28;20082;-78
2023/09/26 23:59:30;;;;;;;15.55;7.93;;;16.80;94.60;;;;;;4976023;28;20058;-78
